createdAt,value
2017-08-19T00:00:03.334Z,0
2017-08-19T00:05:02.814Z,3
2017-08-19T00:10:03.430Z,0
2017-08-19T00:15:02.942Z,2
2017-08-19T00:20:03.382Z,4
2017-08-19T00:25:02.916Z,3
2017-08-19T00:30:03.359Z,5
2017-08-19T00:35:02.887Z,4
2017-08-19T00:40:03.323Z,3
2017-08-19T00:45:02.869Z,5
2017-08-19T00:50:03.314Z,6
2017-08-19T00:55:02.788Z,4
2017-08-19T01:00:03.192Z,7
2017-08-19T01:05:02.728Z,5
2017-08-19T01:10:03.317Z,7
2017-08-19T01:15:02.843Z,3
2017-08-19T01:20:03.429Z,5
2017-08-19T01:25:02.839Z,5
2017-08-19T01:30:03.290Z,4
2017-08-19T01:35:02.787Z,7
2017-08-19T01:40:03.371Z,7
2017-08-19T01:45:02.878Z,5
2017-08-19T01:50:03.356Z,7
2017-08-19T01:55:03.044Z,7
2017-08-19T02:00:03.480Z,7
2017-08-19T02:05:02.876Z,4
2017-08-19T02:10:03.530Z,6
2017-08-19T02:15:03.032Z,6
2017-08-19T02:20:03.480Z,5
2017-08-19T02:25:03.028Z,6
2017-08-19T02:30:03.505Z,7
2017-08-19T02:35:02.895Z,6
2017-08-19T02:40:03.472Z,5
2017-08-19T02:45:02.873Z,5
2017-08-19T02:50:03.447Z,6
2017-08-19T02:55:02.847Z,7
2017-08-19T03:00:03.360Z,6
2017-08-19T03:05:02.753Z,4
2017-08-19T03:10:03.335Z,6
2017-08-19T03:15:02.834Z,7
2017-08-19T03:20:03.423Z,5
2017-08-19T03:25:02.792Z,8
2017-08-19T03:30:03.270Z,3
2017-08-19T03:35:02.780Z,6
2017-08-19T03:40:03.246Z,7
2017-08-19T03:45:02.654Z,5
2017-08-19T03:50:03.294Z,6
2017-08-19T03:55:02.714Z,4
2017-08-19T04:00:03.107Z,7
2017-08-19T04:05:03.006Z,5
2017-08-19T04:10:03.521Z,6
2017-08-19T04:15:03.143Z,6
2017-08-19T04:20:02.660Z,5
2017-08-19T04:25:03.203Z,7
2017-08-19T04:30:03.146Z,7
2017-08-19T04:35:02.585Z,5
2017-08-19T04:40:03.226Z,7
2017-08-19T04:45:02.764Z,8
2017-08-19T04:50:03.331Z,8
2017-08-19T04:55:02.736Z,5
2017-08-19T05:00:03.244Z,6
2017-08-19T05:05:02.730Z,5
2017-08-19T05:10:03.175Z,10
2017-08-19T05:15:02.670Z,7
2017-08-19T05:20:03.099Z,7
2017-08-19T05:25:03.545Z,8
2017-08-19T05:30:03.076Z,8
2017-08-19T05:35:03.519Z,10
2017-08-19T05:40:03.088Z,8
2017-08-19T05:45:02.644Z,7
2017-08-19T05:50:03.079Z,8
2017-08-19T05:55:03.474Z,10
2017-08-19T06:00:02.875Z,6
2017-08-19T06:05:03.461Z,5
2017-08-19T06:10:02.962Z,7
2017-08-19T06:15:03.569Z,7
2017-08-19T06:20:02.998Z,8
2017-08-19T06:25:03.358Z,8
2017-08-19T06:30:02.743Z,9
2017-08-19T06:35:03.171Z,12
2017-08-19T06:40:02.760Z,7
2017-08-19T06:45:03.391Z,8
2017-08-19T06:50:02.848Z,10
2017-08-19T06:55:03.429Z,9
2017-08-19T07:00:03.144Z,5
2017-08-19T07:05:02.755Z,10
2017-08-19T07:10:03.255Z,9
2017-08-19T07:15:02.635Z,10
2017-08-19T07:20:03.091Z,12
2017-08-19T07:25:03.480Z,10
2017-08-19T07:30:03.094Z,6
2017-08-19T07:35:02.643Z,9
2017-08-19T07:40:03.195Z,10
2017-08-19T07:45:02.713Z,16
2017-08-19T07:50:03.309Z,12
2017-08-19T07:55:02.761Z,10
2017-08-19T08:00:03.266Z,7
2017-08-19T08:05:02.878Z,12
2017-08-19T08:10:02.632Z,6
2017-08-19T08:15:03.014Z,10
2017-08-19T08:20:03.543Z,9
2017-08-19T08:25:02.983Z,8
2017-08-19T08:30:02.549Z,5
2017-08-19T08:35:03.147Z,7
2017-08-19T08:40:02.638Z,11
2017-08-19T08:45:03.050Z,8
2017-08-19T08:50:02.587Z,7
2017-08-19T08:55:03.025Z,8
2017-08-19T09:00:03.427Z,12
2017-08-19T09:05:02.856Z,8
2017-08-19T09:10:03.543Z,9
2017-08-19T09:15:03.190Z,12
2017-08-19T09:20:02.645Z,13
2017-08-19T09:25:03.233Z,7
2017-08-19T09:30:02.771Z,10
2017-08-19T09:35:03.391Z,9
2017-08-19T09:40:02.868Z,7
2017-08-19T09:45:03.448Z,8
2017-08-19T09:50:02.878Z,7
2017-08-19T09:55:03.438Z,8
2017-08-19T10:00:02.988Z,5
2017-08-19T10:05:03.427Z,5
2017-08-19T10:10:03.029Z,7
2017-08-19T10:20:02.946Z,7
2017-08-19T10:25:03.356Z,10
2017-08-19T10:30:02.947Z,9
2017-08-19T10:35:03.377Z,7
2017-08-19T10:40:02.888Z,8
2017-08-19T10:45:03.357Z,9
2017-08-19T10:50:03.020Z,3
2017-08-19T10:55:02.579Z,8
2017-08-19T11:00:03.162Z,5
2017-08-19T11:05:02.794Z,7
2017-08-19T11:10:03.422Z,6
2017-08-19T11:15:02.991Z,6
2017-08-19T11:20:03.433Z,7
2017-08-19T11:25:02.865Z,9
2017-08-19T11:30:03.332Z,8
2017-08-19T11:35:02.765Z,3
2017-08-19T11:40:03.389Z,6
2017-08-19T11:45:03.006Z,4
2017-08-19T11:50:03.466Z,8
2017-08-19T11:55:02.954Z,7
2017-08-19T12:00:03.543Z,6
2017-08-19T12:05:03.151Z,9
2017-08-19T12:10:02.791Z,10
2017-08-19T12:15:03.200Z,8
2017-08-19T12:20:02.756Z,3
2017-08-19T12:25:03.378Z,11
2017-08-19T12:30:02.921Z,13
2017-08-19T12:35:03.388Z,12
2017-08-19T12:40:02.957Z,8
2017-08-19T12:45:03.495Z,9
2017-08-19T12:50:02.910Z,7
2017-08-19T12:55:03.363Z,8
2017-08-19T13:00:02.769Z,6
2017-08-19T13:05:03.276Z,7
2017-08-19T13:10:02.877Z,6
2017-08-19T13:15:03.238Z,5
2017-08-19T13:20:02.837Z,7
2017-08-19T13:25:03.519Z,8
2017-08-19T13:30:03.115Z,6
2017-08-19T13:35:02.660Z,7
2017-08-19T13:40:03.279Z,6
2017-08-19T13:45:02.874Z,7
2017-08-19T13:50:03.489Z,7
2017-08-19T13:55:03.006Z,5
2017-08-19T14:00:02.574Z,9
2017-08-19T14:05:03.021Z,6
2017-08-19T14:10:02.576Z,6
2017-08-19T14:15:03.025Z,10
2017-08-19T14:20:02.594Z,8
2017-08-19T14:25:03.064Z,9
2017-08-19T14:30:02.704Z,5
2017-08-19T14:40:03.041Z,7
2017-08-19T14:45:02.640Z,6
2017-08-19T14:50:03.272Z,10
2017-08-19T14:55:02.732Z,4
2017-08-19T15:00:03.200Z,8
2017-08-19T15:05:02.779Z,7
2017-08-19T15:10:03.250Z,8
2017-08-19T15:15:02.820Z,8
2017-08-19T15:20:03.322Z,5
2017-08-19T15:25:02.720Z,7
2017-08-19T15:30:03.174Z,9
2017-08-19T15:35:02.749Z,5
2017-08-19T15:40:03.191Z,7
2017-08-19T15:45:02.634Z,6
2017-08-19T15:50:03.267Z,7
2017-08-19T15:55:02.826Z,6
2017-08-19T16:00:03.421Z,6
2017-08-19T16:05:02.895Z,6
2017-08-19T16:10:02.580Z,7
2017-08-19T16:15:02.966Z,4
2017-08-19T16:20:03.429Z,6
2017-08-19T16:25:03.007Z,4
2017-08-19T16:30:03.439Z,11
2017-08-19T16:35:03.068Z,6
2017-08-19T16:40:02.756Z,4
2017-08-19T16:45:03.344Z,8
2017-08-19T16:50:02.913Z,7
2017-08-19T16:55:03.534Z,3
2017-08-19T17:00:03.123Z,7
2017-08-19T17:05:03.543Z,6
2017-08-19T17:10:03.168Z,8
2017-08-19T17:15:02.686Z,5
2017-08-19T17:20:03.342Z,9
2017-08-19T17:25:02.790Z,7
2017-08-19T17:30:03.399Z,3
2017-08-19T17:35:02.821Z,3
2017-08-19T17:40:03.326Z,4
2017-08-19T17:45:02.744Z,5
2017-08-19T17:50:03.198Z,8
2017-08-19T17:55:02.774Z,3
2017-08-19T18:00:03.179Z,4
2017-08-19T18:05:02.630Z,5
2017-08-19T18:10:03.083Z,7
2017-08-19T18:15:03.558Z,4
2017-08-19T18:20:03.168Z,3
2017-08-19T18:25:02.722Z,5
2017-08-19T18:30:03.200Z,4
2017-08-19T18:35:02.686Z,7
2017-08-19T18:40:03.192Z,6
2017-08-19T18:45:02.796Z,6
2017-08-19T18:50:03.222Z,7
2017-08-19T18:55:02.831Z,5
2017-08-19T19:00:03.399Z,7
2017-08-19T19:05:02.812Z,5
2017-08-19T19:10:03.240Z,4
2017-08-19T19:15:02.696Z,0
2017-08-19T19:20:03.110Z,5
2017-08-19T19:25:02.669Z,2
2017-08-19T19:30:03.265Z,3
2017-08-19T19:35:02.841Z,4
2017-08-19T19:40:03.456Z,3
2017-08-19T19:45:03.050Z,4
2017-08-19T19:50:02.618Z,3
2017-08-19T19:55:03.140Z,3
2017-08-19T20:00:02.541Z,3
2017-08-19T20:05:03.116Z,2
2017-08-19T20:10:02.576Z,2
2017-08-19T20:15:03.044Z,2
2017-08-19T20:20:03.588Z,3
2017-08-19T20:25:03.185Z,0
2017-08-19T20:30:02.818Z,2
2017-08-19T20:35:03.508Z,3
2017-08-19T20:40:02.986Z,3
2017-08-19T20:45:02.584Z,1
2017-08-19T20:50:03.129Z,2
2017-08-19T20:55:02.641Z,2
2017-08-19T21:00:03.150Z,3
2017-08-19T21:05:02.759Z,1
2017-08-19T21:10:03.410Z,2
2017-08-19T21:15:02.799Z,3
2017-08-19T21:20:03.352Z,3
2017-08-19T21:25:03.199Z,3
2017-08-19T21:30:02.616Z,3
2017-08-19T21:35:03.158Z,2
2017-08-19T21:40:02.578Z,2
2017-08-19T21:45:03.024Z,1
2017-08-19T21:50:02.636Z,2
2017-08-19T21:55:03.208Z,2
2017-08-19T22:00:02.584Z,1
2017-08-19T22:05:03.088Z,1
2017-08-19T22:10:02.623Z,2
2017-08-19T22:15:03.093Z,0
2017-08-19T22:20:02.653Z,2
2017-08-19T22:25:03.010Z,3
2017-08-19T22:30:03.381Z,4
2017-08-19T22:35:02.963Z,3
2017-08-19T22:40:02.579Z,6
2017-08-19T22:45:03.131Z,3
2017-08-19T22:50:02.697Z,3
2017-08-19T22:55:03.133Z,3
2017-08-19T23:00:03.738Z,4
2017-08-19T23:05:03.507Z,6
2017-08-19T23:10:03.129Z,5
2017-08-19T23:15:03.530Z,7
2017-08-19T23:20:03.148Z,6
2017-08-19T23:25:02.665Z,5
2017-08-19T23:30:03.226Z,5
2017-08-19T23:40:03.353Z,6
2017-08-19T23:45:02.875Z,6
2017-08-19T23:50:03.381Z,4
2017-08-19T23:55:02.986Z,2
